sensor_id;sensor_type;location;lat;lon;timestamp;P1;durP1;ratioP1;P2;durP2;ratioP2
52210;SDS011;38179;52.756;6.906;2023-05-29T00:00:21;19.02;;;14.05;;
52210;SDS011;38179;52.756;6.906;2023-05-29T00:02:49;21.75;;;14.10;;
52210;SDS011;38179;52.756;6.906;2023-05-29T00:05:16;29.37;;;14.90;;
52210;SDS011;38179;52.756;6.906;2023-05-29T00:07:42;21.63;;;14.25;;
52210;SDS011;38179;52.756;6.906;2023-05-29T00:10:09;19.67;;;13.68;;
52210;SDS011;38179;52.756;6.906;2023-05-29T00:12:36;22.75;;;13.43;;
52210;SDS011;38179;52.756;6.906;2023-05-29T00:15:03;21.33;;;13.07;;
52210;SDS011;38179;52.756;6.906;2023-05-29T00:17:30;21.13;;;13.02;;
52210;SDS011;38179;52.756;6.906;2023-05-29T00:20:01;24.23;;;14.43;;
52210;SDS011;38179;52.756;6.906;2023-05-29T00:22:34;18.52;;;12.88;;
52210;SDS011;38179;52.756;6.906;2023-05-29T00:25:03;22.58;;;13.88;;
52210;SDS011;38179;52.756;6.906;2023-05-29T00:27:33;22.80;;;13.27;;
52210;SDS011;38179;52.756;6.906;2023-05-29T00:30:00;19.92;;;12.70;;
52210;SDS011;38179;52.756;6.906;2023-05-29T00:32:26;19.33;;;13.43;;
52210;SDS011;38179;52.756;6.906;2023-05-29T00:34:55;22.73;;;12.68;;
52210;SDS011;38179;52.756;6.906;2023-05-29T00:37:21;21.50;;;13.50;;
52210;SDS011;38179;52.756;6.906;2023-05-29T00:39:50;24.80;;;13.80;;
52210;SDS011;38179;52.756;6.906;2023-05-29T00:44:42;19.85;;;13.25;;
52210;SDS011;38179;52.756;6.906;2023-05-29T00:47:08;18.67;;;13.23;;
52210;SDS011;38179;52.756;6.906;2023-05-29T00:49:35;23.23;;;13.73;;
52210;SDS011;38179;52.756;6.906;2023-05-29T00:52:02;19.63;;;12.52;;
52210;SDS011;38179;52.756;6.906;2023-05-29T00:54:32;23.05;;;13.40;;
52210;SDS011;38179;52.756;6.906;2023-05-29T00:56:58;24.45;;;13.20;;
52210;SDS011;38179;52.756;6.906;2023-05-29T00:59:27;20.80;;;13.10;;
52210;SDS011;38179;52.756;6.906;2023-05-29T01:01:55;20.10;;;13.50;;
52210;SDS011;38179;52.756;6.906;2023-05-29T01:04:23;22.58;;;14.00;;
52210;SDS011;38179;52.756;6.906;2023-05-29T01:06:51;22.40;;;12.73;;
52210;SDS011;38179;52.756;6.906;2023-05-29T01:09:17;23.40;;;13.50;;
52210;SDS011;38179;52.756;6.906;2023-05-29T01:11:45;18.65;;;12.23;;
52210;SDS011;38179;52.756;6.906;2023-05-29T01:14:29;20.15;;;13.60;;
52210;SDS011;38179;52.756;6.906;2023-05-29T01:17:22;19.58;;;12.52;;
52210;SDS011;38179;52.756;6.906;2023-05-29T01:20:24;18.63;;;12.02;;
52210;SDS011;38179;52.756;6.906;2023-05-29T01:23:04;25.52;;;13.50;;
52210;SDS011;38179;52.756;6.906;2023-05-29T01:28:39;21.55;;;12.60;;
52210;SDS011;38179;52.756;6.906;2023-05-29T01:31:07;17.38;;;12.10;;
52210;SDS011;38179;52.756;6.906;2023-05-29T01:33:38;18.25;;;12.20;;
52210;SDS011;38179;52.756;6.906;2023-05-29T01:36:06;21.88;;;13.13;;
52210;SDS011;38179;52.756;6.906;2023-05-29T01:38:36;21.67;;;13.95;;
52210;SDS011;38179;52.756;6.906;2023-05-29T01:41:02;22.17;;;13.38;;
52210;SDS011;38179;52.756;6.906;2023-05-29T01:43:29;22.40;;;12.57;;
52210;SDS011;38179;52.756;6.906;2023-05-29T01:45:55;24.08;;;12.90;;
52210;SDS011;38179;52.756;6.906;2023-05-29T01:48:21;15.85;;;12.57;;
52210;SDS011;38179;52.756;6.906;2023-05-29T01:50:48;17.35;;;12.40;;
52210;SDS011;38179;52.756;6.906;2023-05-29T01:53:15;16.25;;;12.52;;
52210;SDS011;38179;52.756;6.906;2023-05-29T01:55:41;18.55;;;12.38;;
52210;SDS011;38179;52.756;6.906;2023-05-29T01:58:07;18.13;;;13.45;;
52210;SDS011;38179;52.756;6.906;2023-05-29T02:00:35;17.08;;;12.55;;
52210;SDS011;38179;52.756;6.906;2023-05-29T02:03:00;24.17;;;13.30;;
52210;SDS011;38179;52.756;6.906;2023-05-29T02:05:27;21.98;;;12.93;;
52210;SDS011;38179;52.756;6.906;2023-05-29T02:07:53;20.42;;;12.75;;
52210;SDS011;38179;52.756;6.906;2023-05-29T02:10:19;20.05;;;12.38;;
52210;SDS011;38179;52.756;6.906;2023-05-29T02:12:45;20.83;;;12.43;;
52210;SDS011;38179;52.756;6.906;2023-05-29T02:15:11;18.52;;;11.68;;
52210;SDS011;38179;52.756;6.906;2023-05-29T02:17:36;18.65;;;12.32;;
52210;SDS011;38179;52.756;6.906;2023-05-29T02:20:02;19.50;;;11.93;;
52210;SDS011;38179;52.756;6.906;2023-05-29T02:22:29;19.17;;;12.25;;
52210;SDS011;38179;52.756;6.906;2023-05-29T02:24:55;21.15;;;12.65;;
52210;SDS011;38179;52.756;6.906;2023-05-29T02:27:21;20.17;;;12.43;;
52210;SDS011;38179;52.756;6.906;2023-05-29T02:29:47;19.50;;;11.93;;
52210;SDS011;38179;52.756;6.906;2023-05-29T02:32:13;25.17;;;12.88;;
52210;SDS011;38179;52.756;6.906;2023-05-29T02:34:39;18.30;;;12.43;;
52210;SDS011;38179;52.756;6.906;2023-05-29T02:37:04;20.13;;;12.32;;
52210;SDS011;38179;52.756;6.906;2023-05-29T02:39:30;20.65;;;12.73;;
52210;SDS011;38179;52.756;6.906;2023-05-29T02:41:56;20.05;;;12.25;;
52210;SDS011;38179;52.756;6.906;2023-05-29T02:44:22;17.58;;;11.73;;
52210;SDS011;38179;52.756;6.906;2023-05-29T02:46:48;21.05;;;12.38;;
52210;SDS011;38179;52.756;6.906;2023-05-29T02:49:14;17.77;;;12.02;;
52210;SDS011;38179;52.756;6.906;2023-05-29T02:51:40;22.33;;;12.70;;
52210;SDS011;38179;52.756;6.906;2023-05-29T02:54:05;21.90;;;12.10;;
52210;SDS011;38179;52.756;6.906;2023-05-29T02:56:32;20.23;;;12.45;;
52210;SDS011;38179;52.756;6.906;2023-05-29T02:58:59;18.90;;;11.52;;
52210;SDS011;38179;52.756;6.906;2023-05-29T03:01:25;20.70;;;12.50;;
52210;SDS011;38179;52.756;6.906;2023-05-29T03:03:51;17.52;;;12.55;;
52210;SDS011;38179;52.756;6.906;2023-05-29T03:06:17;29.00;;;12.90;;
52210;SDS011;38179;52.756;6.906;2023-05-29T03:08:43;26.63;;;13.18;;
52210;SDS011;38179;52.756;6.906;2023-05-29T03:11:10;18.65;;;11.85;;
52210;SDS011;38179;52.756;6.906;2023-05-29T03:13:37;19.92;;;12.52;;
52210;SDS011;38179;52.756;6.906;2023-05-29T03:16:03;20.02;;;12.15;;
52210;SDS011;38179;52.756;6.906;2023-05-29T03:18:29;20.30;;;13.10;;
52210;SDS011;38179;52.756;6.906;2023-05-29T03:20:55;20.17;;;11.50;;
52210;SDS011;38179;52.756;6.906;2023-05-29T03:23:22;16.35;;;11.73;;
52210;SDS011;38179;52.756;6.906;2023-05-29T03:25:48;21.17;;;13.20;;
52210;SDS011;38179;52.756;6.906;2023-05-29T03:28:13;19.45;;;12.02;;
52210;SDS011;38179;52.756;6.906;2023-05-29T03:30:40;20.33;;;12.52;;
52210;SDS011;38179;52.756;6.906;2023-05-29T03:33:06;22.42;;;12.68;;
52210;SDS011;38179;52.756;6.906;2023-05-29T03:35:31;18.35;;;12.13;;
52210;SDS011;38179;52.756;6.906;2023-05-29T03:37:58;20.90;;;12.70;;
52210;SDS011;38179;52.756;6.906;2023-05-29T03:40:24;23.02;;;12.27;;
52210;SDS011;38179;52.756;6.906;2023-05-29T03:42:50;21.35;;;13.40;;
52210;SDS011;38179;52.756;6.906;2023-05-29T03:45:16;20.25;;;13.13;;
52210;SDS011;38179;52.756;6.906;2023-05-29T03:47:42;22.83;;;12.30;;
52210;SDS011;38179;52.756;6.906;2023-05-29T03:50:08;21.42;;;12.80;;
52210;SDS011;38179;52.756;6.906;2023-05-29T03:52:34;22.58;;;12.65;;
52210;SDS011;38179;52.756;6.906;2023-05-29T03:55:01;19.63;;;12.65;;
52210;SDS011;38179;52.756;6.906;2023-05-29T03:57:27;19.50;;;12.40;;
52210;SDS011;38179;52.756;6.906;2023-05-29T03:59:53;23.98;;;12.80;;
52210;SDS011;38179;52.756;6.906;2023-05-29T04:02:19;18.25;;;11.30;;
52210;SDS011;38179;52.756;6.906;2023-05-29T04:04:45;17.73;;;12.88;;
52210;SDS011;38179;52.756;6.906;2023-05-29T04:07:10;22.73;;;11.80;;
52210;SDS011;38179;52.756;6.906;2023-05-29T04:09:36;20.15;;;12.75;;
52210;SDS011;38179;52.756;6.906;2023-05-29T04:12:02;21.02;;;11.80;;
52210;SDS011;38179;52.756;6.906;2023-05-29T04:14:30;18.03;;;12.43;;
52210;SDS011;38179;52.756;6.906;2023-05-29T04:16:56;24.23;;;12.55;;
52210;SDS011;38179;52.756;6.906;2023-05-29T04:19:22;23.45;;;12.57;;
52210;SDS011;38179;52.756;6.906;2023-05-29T04:21:48;15.93;;;11.57;;
52210;SDS011;38179;52.756;6.906;2023-05-29T04:24:14;15.63;;;12.38;;
52210;SDS011;38179;52.756;6.906;2023-05-29T04:26:41;20.30;;;13.00;;
52210;SDS011;38179;52.756;6.906;2023-05-29T04:29:11;25.02;;;12.02;;
52210;SDS011;38179;52.756;6.906;2023-05-29T04:31:37;18.17;;;12.02;;
52210;SDS011;38179;52.756;6.906;2023-05-29T04:34:03;30.40;;;12.73;;
52210;SDS011;38179;52.756;6.906;2023-05-29T04:36:32;18.02;;;12.43;;
52210;SDS011;38179;52.756;6.906;2023-05-29T04:38:58;22.77;;;12.07;;
52210;SDS011;38179;52.756;6.906;2023-05-29T04:41:25;17.75;;;11.98;;
52210;SDS011;38179;52.756;6.906;2023-05-29T04:43:54;21.70;;;12.13;;
52210;SDS011;38179;52.756;6.906;2023-05-29T04:46:22;21.23;;;12.23;;
52210;SDS011;38179;52.756;6.906;2023-05-29T04:48:49;21.23;;;12.60;;
52210;SDS011;38179;52.756;6.906;2023-05-29T04:51:19;15.00;;;11.38;;
52210;SDS011;38179;52.756;6.906;2023-05-29T04:53:46;14.13;;;11.57;;
52210;SDS011;38179;52.756;6.906;2023-05-29T04:56:13;16.73;;;11.63;;
52210;SDS011;38179;52.756;6.906;2023-05-29T04:58:40;22.73;;;11.52;;
52210;SDS011;38179;52.756;6.906;2023-05-29T05:01:06;20.38;;;11.88;;
52210;SDS011;38179;52.756;6.906;2023-05-29T05:03:34;16.13;;;11.15;;
52210;SDS011;38179;52.756;6.906;2023-05-29T05:06:01;17.65;;;11.82;;
52210;SDS011;38179;52.756;6.906;2023-05-29T05:08:28;20.05;;;11.32;;
52210;SDS011;38179;52.756;6.906;2023-05-29T05:10:55;23.20;;;12.55;;
52210;SDS011;38179;52.756;6.906;2023-05-29T05:13:21;23.73;;;12.23;;
52210;SDS011;38179;52.756;6.906;2023-05-29T05:15:47;20.42;;;12.15;;
52210;SDS011;38179;52.756;6.906;2023-05-29T05:18:13;20.17;;;12.07;;
52210;SDS011;38179;52.756;6.906;2023-05-29T05:20:39;21.83;;;12.82;;
52210;SDS011;38179;52.756;6.906;2023-05-29T05:23:05;21.50;;;11.70;;
52210;SDS011;38179;52.756;6.906;2023-05-29T05:25:31;21.83;;;12.00;;
52210;SDS011;38179;52.756;6.906;2023-05-29T05:27:58;23.90;;;12.75;;
52210;SDS011;38179;52.756;6.906;2023-05-29T05:30:24;20.00;;;11.70;;
52210;SDS011;38179;52.756;6.906;2023-05-29T05:32:50;17.75;;;11.27;;
52210;SDS011;38179;52.756;6.906;2023-05-29T05:35:16;23.83;;;13.00;;
52210;SDS011;38179;52.756;6.906;2023-05-29T05:37:41;23.02;;;12.25;;
52210;SDS011;38179;52.756;6.906;2023-05-29T05:40:07;24.30;;;12.40;;
52210;SDS011;38179;52.756;6.906;2023-05-29T05:42:34;18.08;;;11.82;;
52210;SDS011;38179;52.756;6.906;2023-05-29T05:45:00;17.45;;;11.05;;
52210;SDS011;38179;52.756;6.906;2023-05-29T05:47:26;19.92;;;12.20;;
52210;SDS011;38179;52.756;6.906;2023-05-29T05:49:53;20.42;;;11.88;;
52210;SDS011;38179;52.756;6.906;2023-05-29T05:52:19;17.83;;;11.85;;
52210;SDS011;38179;52.756;6.906;2023-05-29T05:54:45;21.83;;;13.23;;
52210;SDS011;38179;52.756;6.906;2023-05-29T05:57:11;19.65;;;11.77;;
52210;SDS011;38179;52.756;6.906;2023-05-29T05:59:37;18.33;;;11.65;;
52210;SDS011;38179;52.756;6.906;2023-05-29T06:02:04;14.80;;;11.95;;
52210;SDS011;38179;52.756;6.906;2023-05-29T06:04:30;20.40;;;12.27;;
52210;SDS011;38179;52.756;6.906;2023-05-29T06:06:56;19.25;;;12.10;;
52210;SDS011;38179;52.756;6.906;2023-05-29T06:09:22;21.17;;;12.30;;
52210;SDS011;38179;52.756;6.906;2023-05-29T06:11:48;18.17;;;11.75;;
52210;SDS011;38179;52.756;6.906;2023-05-29T06:14:14;18.02;;;11.85;;
52210;SDS011;38179;52.756;6.906;2023-05-29T06:16:40;18.52;;;11.52;;
52210;SDS011;38179;52.756;6.906;2023-05-29T06:19:06;20.00;;;12.60;;
52210;SDS011;38179;52.756;6.906;2023-05-29T06:21:32;19.27;;;12.52;;
52210;SDS011;38179;52.756;6.906;2023-05-29T06:23:57;22.17;;;12.55;;
52210;SDS011;38179;52.756;6.906;2023-05-29T06:26:23;23.23;;;12.85;;
52210;SDS011;38179;52.756;6.906;2023-05-29T06:28:52;18.02;;;11.93;;
52210;SDS011;38179;52.756;6.906;2023-05-29T06:31:18;20.67;;;12.70;;
52210;SDS011;38179;52.756;6.906;2023-05-29T06:33:45;19.25;;;12.18;;
52210;SDS011;38179;52.756;6.906;2023-05-29T06:36:11;20.25;;;12.55;;
52210;SDS011;38179;52.756;6.906;2023-05-29T06:38:37;22.38;;;12.27;;
52210;SDS011;38179;52.756;6.906;2023-05-29T06:41:03;30.15;;;13.27;;
52210;SDS011;38179;52.756;6.906;2023-05-29T06:43:29;18.92;;;12.70;;
52210;SDS011;38179;52.756;6.906;2023-05-29T06:45:55;20.90;;;13.18;;
52210;SDS011;38179;52.756;6.906;2023-05-29T06:48:21;19.27;;;13.38;;
52210;SDS011;38179;52.756;6.906;2023-05-29T06:50:50;23.83;;;13.15;;
52210;SDS011;38179;52.756;6.906;2023-05-29T06:53:15;18.33;;;12.45;;
52210;SDS011;38179;52.756;6.906;2023-05-29T06:55:41;17.35;;;12.80;;
52210;SDS011;38179;52.756;6.906;2023-05-29T06:58:07;18.00;;;13.20;;
52210;SDS011;38179;52.756;6.906;2023-05-29T07:00:33;18.70;;;12.98;;
52210;SDS011;38179;52.756;6.906;2023-05-29T07:02:59;21.45;;;13.23;;
52210;SDS011;38179;52.756;6.906;2023-05-29T07:05:26;18.25;;;12.27;;
52210;SDS011;38179;52.756;6.906;2023-05-29T07:07:52;18.70;;;12.98;;
52210;SDS011;38179;52.756;6.906;2023-05-29T07:10:18;19.13;;;11.95;;
52210;SDS011;38179;52.756;6.906;2023-05-29T07:12:44;22.80;;;13.35;;
52210;SDS011;38179;52.756;6.906;2023-05-29T07:15:10;18.67;;;13.18;;
52210;SDS011;38179;52.756;6.906;2023-05-29T07:17:35;22.02;;;13.25;;
52210;SDS011;38179;52.756;6.906;2023-05-29T07:20:01;22.23;;;12.70;;
52210;SDS011;38179;52.756;6.906;2023-05-29T07:22:30;17.77;;;13.97;;
52210;SDS011;38179;52.756;6.906;2023-05-29T07:24:55;16.77;;;13.02;;
52210;SDS011;38179;52.756;6.906;2023-05-29T07:27:21;19.05;;;13.35;;
52210;SDS011;38179;52.756;6.906;2023-05-29T07:29:47;21.85;;;12.77;;
52210;SDS011;38179;52.756;6.906;2023-05-29T07:32:13;21.67;;;13.82;;
52210;SDS011;38179;52.756;6.906;2023-05-29T07:34:39;21.08;;;13.38;;
52210;SDS011;38179;52.756;6.906;2023-05-29T07:37:05;16.95;;;12.93;;
52210;SDS011;38179;52.756;6.906;2023-05-29T07:39:32;18.73;;;13.10;;
52210;SDS011;38179;52.756;6.906;2023-05-29T07:42:00;22.10;;;13.90;;
52210;SDS011;38179;52.756;6.906;2023-05-29T07:44:26;20.77;;;12.98;;
52210;SDS011;38179;52.756;6.906;2023-05-29T07:46:54;23.70;;;13.10;;
52210;SDS011;38179;52.756;6.906;2023-05-29T07:49:20;17.02;;;12.90;;
52210;SDS011;38179;52.756;6.906;2023-05-29T07:51:46;22.52;;;12.80;;
52210;SDS011;38179;52.756;6.906;2023-05-29T07:54:12;20.58;;;14.10;;
52210;SDS011;38179;52.756;6.906;2023-05-29T07:56:38;18.90;;;12.80;;
52210;SDS011;38179;52.756;6.906;2023-05-29T07:59:05;24.95;;;13.63;;
52210;SDS011;38179;52.756;6.906;2023-05-29T08:01:34;20.00;;;13.93;;
52210;SDS011;38179;52.756;6.906;2023-05-29T08:04:00;24.85;;;14.23;;
52210;SDS011;38179;52.756;6.906;2023-05-29T08:06:26;23.38;;;14.55;;
52210;SDS011;38179;52.756;6.906;2023-05-29T08:08:52;20.63;;;13.77;;
52210;SDS011;38179;52.756;6.906;2023-05-29T08:11:18;20.80;;;14.30;;
52210;SDS011;38179;52.756;6.906;2023-05-29T08:13:44;22.80;;;13.95;;
52210;SDS011;38179;52.756;6.906;2023-05-29T08:16:10;19.35;;;13.15;;
52210;SDS011;38179;52.756;6.906;2023-05-29T08:18:39;22.83;;;14.15;;
52210;SDS011;38179;52.756;6.906;2023-05-29T08:21:05;21.88;;;14.50;;
52210;SDS011;38179;52.756;6.906;2023-05-29T08:23:31;21.60;;;14.13;;
52210;SDS011;38179;52.756;6.906;2023-05-29T08:25:57;19.02;;;13.38;;
52210;SDS011;38179;52.756;6.906;2023-05-29T08:28:23;21.85;;;13.98;;
52210;SDS011;38179;52.756;6.906;2023-05-29T08:30:51;24.50;;;14.93;;
52210;SDS011;38179;52.756;6.906;2023-05-29T08:33:17;19.15;;;13.88;;
52210;SDS011;38179;52.756;6.906;2023-05-29T08:35:46;18.50;;;14.05;;
52210;SDS011;38179;52.756;6.906;2023-05-29T08:38:12;22.52;;;13.70;;
52210;SDS011;38179;52.756;6.906;2023-05-29T08:40:38;21.75;;;14.00;;
52210;SDS011;38179;52.756;6.906;2023-05-29T08:45:33;22.40;;;13.38;;
52210;SDS011;38179;52.756;6.906;2023-05-29T08:48:02;19.65;;;14.25;;
52210;SDS011;38179;52.756;6.906;2023-05-29T08:50:28;18.05;;;13.80;;
52210;SDS011;38179;52.756;6.906;2023-05-29T08:52:54;24.90;;;15.32;;
52210;SDS011;38179;52.756;6.906;2023-05-29T08:55:22;21.85;;;15.40;;
52210;SDS011;38179;52.756;6.906;2023-05-29T08:57:48;22.98;;;14.20;;
52210;SDS011;38179;52.756;6.906;2023-05-29T09:00:15;20.60;;;13.70;;
52210;SDS011;38179;52.756;6.906;2023-05-29T09:02:43;21.88;;;14.10;;
52210;SDS011;38179;52.756;6.906;2023-05-29T09:05:09;23.95;;;14.90;;
52210;SDS011;38179;52.756;6.906;2023-05-29T09:07:36;19.30;;;14.40;;
52210;SDS011;38179;52.756;6.906;2023-05-29T09:10:06;18.80;;;14.52;;
52210;SDS011;38179;52.756;6.906;2023-05-29T09:12:33;19.35;;;13.93;;
52210;SDS011;38179;52.756;6.906;2023-05-29T09:15:00;15.48;;;13.63;;
52210;SDS011;38179;52.756;6.906;2023-05-29T09:17:30;17.27;;;13.52;;
52210;SDS011;38179;52.756;6.906;2023-05-29T09:19:58;19.33;;;14.07;;
52210;SDS011;38179;52.756;6.906;2023-05-29T09:22:24;22.80;;;14.48;;
52210;SDS011;38179;52.756;6.906;2023-05-29T09:24:49;19.88;;;13.68;;
52210;SDS011;38179;52.756;6.906;2023-05-29T09:27:16;18.88;;;13.95;;
52210;SDS011;38179;52.756;6.906;2023-05-29T09:29:43;20.45;;;15.07;;
52210;SDS011;38179;52.756;6.906;2023-05-29T09:32:17;18.45;;;14.05;;
52210;SDS011;38179;52.756;6.906;2023-05-29T09:34:43;18.73;;;13.80;;
52210;SDS011;38179;52.756;6.906;2023-05-29T09:37:10;20.38;;;15.15;;
52210;SDS011;38179;52.756;6.906;2023-05-29T09:39:47;15.95;;;14.18;;
52210;SDS011;38179;52.756;6.906;2023-05-29T09:42:14;18.80;;;14.43;;
52210;SDS011;38179;52.756;6.906;2023-05-29T09:44:41;22.17;;;14.50;;
52210;SDS011;38179;52.756;6.906;2023-05-29T09:47:08;27.52;;;14.27;;
52210;SDS011;38179;52.756;6.906;2023-05-29T09:49:40;23.70;;;15.40;;
52210;SDS011;38179;52.756;6.906;2023-05-29T09:52:06;22.02;;;15.10;;
52210;SDS011;38179;52.756;6.906;2023-05-29T09:54:34;21.98;;;13.75;;
52210;SDS011;38179;52.756;6.906;2023-05-29T09:57:01;19.48;;;14.18;;
52210;SDS011;38179;52.756;6.906;2023-05-29T10:02:05;20.38;;;14.45;;
52210;SDS011;38179;52.756;6.906;2023-05-29T10:04:36;20.50;;;15.15;;
52210;SDS011;38179;52.756;6.906;2023-05-29T10:07:10;22.15;;;14.98;;
52210;SDS011;38179;52.756;6.906;2023-05-29T10:09:45;29.85;;;16.23;;
52210;SDS011;38179;52.756;6.906;2023-05-29T10:12:16;24.67;;;15.18;;
52210;SDS011;38179;52.756;6.906;2023-05-29T10:14:51;20.88;;;14.57;;
52210;SDS011;38179;52.756;6.906;2023-05-29T10:17:23;20.63;;;15.05;;
52210;SDS011;38179;52.756;6.906;2023-05-29T10:19:54;18.77;;;14.82;;
52210;SDS011;38179;52.756;6.906;2023-05-29T10:22:23;20.13;;;14.52;;
52210;SDS011;38179;52.756;6.906;2023-05-29T10:24:52;21.02;;;14.73;;
52210;SDS011;38179;52.756;6.906;2023-05-29T10:27:23;18.15;;;14.75;;
52210;SDS011;38179;52.756;6.906;2023-05-29T10:29:52;19.50;;;15.02;;
52210;SDS011;38179;52.756;6.906;2023-05-29T10:32:43;25.20;;;15.43;;
52210;SDS011;38179;52.756;6.906;2023-05-29T10:38:12;16.63;;;14.63;;
52210;SDS011;38179;52.756;6.906;2023-05-29T10:40:42;20.15;;;14.98;;
52210;SDS011;38179;52.756;6.906;2023-05-29T10:43:08;21.52;;;14.75;;
52210;SDS011;38179;52.756;6.906;2023-05-29T10:45:54;23.15;;;14.52;;
52210;SDS011;38179;52.756;6.906;2023-05-29T10:50:53;19.77;;;14.43;;
52210;SDS011;38179;52.756;6.906;2023-05-29T10:53:23;20.65;;;15.27;;
52210;SDS011;38179;52.756;6.906;2023-05-29T10:55:51;22.27;;;15.23;;
52210;SDS011;38179;52.756;6.906;2023-05-29T10:58:19;21.30;;;14.75;;
52210;SDS011;38179;52.756;6.906;2023-05-29T11:00:46;19.13;;;14.73;;
52210;SDS011;38179;52.756;6.906;2023-05-29T11:03:24;21.38;;;15.15;;
52210;SDS011;38179;52.756;6.906;2023-05-29T11:08:42;22.42;;;15.30;;
52210;SDS011;38179;52.756;6.906;2023-05-29T11:11:15;22.67;;;15.15;;
52210;SDS011;38179;52.756;6.906;2023-05-29T11:14:03;21.17;;;14.98;;
52210;SDS011;38179;52.756;6.906;2023-05-29T11:18:57;20.63;;;14.93;;
52210;SDS011;38179;52.756;6.906;2023-05-29T11:24:00;17.40;;;14.63;;
52210;SDS011;38179;52.756;6.906;2023-05-29T11:26:31;22.13;;;15.40;;
52210;SDS011;38179;52.756;6.906;2023-05-29T11:29:01;21.88;;;15.63;;
52210;SDS011;38179;52.756;6.906;2023-05-29T11:31:35;18.10;;;15.02;;
52210;SDS011;38179;52.756;6.906;2023-05-29T11:34:04;21.90;;;15.45;;
52210;SDS011;38179;52.756;6.906;2023-05-29T11:36:34;22.50;;;15.40;;
52210;SDS011;38179;52.756;6.906;2023-05-29T11:39:02;18.13;;;14.85;;
52210;SDS011;38179;52.756;6.906;2023-05-29T11:41:29;18.90;;;14.82;;
52210;SDS011;38179;52.756;6.906;2023-05-29T11:44:02;17.10;;;14.95;;
52210;SDS011;38179;52.756;6.906;2023-05-29T11:46:31;22.50;;;14.98;;
52210;SDS011;38179;52.756;6.906;2023-05-29T11:48:58;19.08;;;15.05;;
52210;SDS011;38179;52.756;6.906;2023-05-29T11:51:26;22.13;;;15.17;;
52210;SDS011;38179;52.756;6.906;2023-05-29T11:53:52;22.50;;;14.77;;
52210;SDS011;38179;52.756;6.906;2023-05-29T11:56:32;22.27;;;14.55;;
52210;SDS011;38179;52.756;6.906;2023-05-29T11:58:58;19.77;;;15.95;;
52210;SDS011;38179;52.756;6.906;2023-05-29T12:01:25;23.55;;;15.60;;
52210;SDS011;38179;52.756;6.906;2023-05-29T12:03:51;21.30;;;15.10;;
52210;SDS011;38179;52.756;6.906;2023-05-29T12:06:36;19.50;;;15.25;;
52210;SDS011;38179;52.756;6.906;2023-05-29T12:09:02;21.65;;;15.82;;
52210;SDS011;38179;52.756;6.906;2023-05-29T12:11:29;19.60;;;15.80;;
52210;SDS011;38179;52.756;6.906;2023-05-29T12:13:59;25.90;;;15.45;;
52210;SDS011;38179;52.756;6.906;2023-05-29T12:16:26;21.17;;;16.00;;
52210;SDS011;38179;52.756;6.906;2023-05-29T12:18:54;22.17;;;16.47;;
52210;SDS011;38179;52.756;6.906;2023-05-29T12:21:21;20.67;;;15.38;;
52210;SDS011;38179;52.756;6.906;2023-05-29T12:23:51;20.48;;;15.43;;
52210;SDS011;38179;52.756;6.906;2023-05-29T12:26:21;17.25;;;14.93;;
52210;SDS011;38179;52.756;6.906;2023-05-29T12:28:48;18.00;;;14.93;;
52210;SDS011;38179;52.756;6.906;2023-05-29T12:31:26;21.00;;;16.05;;
52210;SDS011;38179;52.756;6.906;2023-05-29T12:33:53;18.65;;;15.10;;
52210;SDS011;38179;52.756;6.906;2023-05-29T12:36:25;20.67;;;14.98;;
52210;SDS011;38179;52.756;6.906;2023-05-29T12:38:52;22.90;;;15.68;;
52210;SDS011;38179;52.756;6.906;2023-05-29T12:41:28;19.08;;;15.52;;
52210;SDS011;38179;52.756;6.906;2023-05-29T12:43:55;20.52;;;15.15;;
52210;SDS011;38179;52.756;6.906;2023-05-29T12:46:23;20.80;;;15.48;;
52210;SDS011;38179;52.756;6.906;2023-05-29T12:48:51;17.52;;;15.65;;
52210;SDS011;38179;52.756;6.906;2023-05-29T12:51:24;23.15;;;15.70;;
52210;SDS011;38179;52.756;6.906;2023-05-29T12:53:51;20.13;;;16.25;;
52210;SDS011;38179;52.756;6.906;2023-05-29T12:56:23;23.33;;;15.88;;
52210;SDS011;38179;52.756;6.906;2023-05-29T12:58:51;20.80;;;15.95;;
52210;SDS011;38179;52.756;6.906;2023-05-29T13:01:18;22.63;;;17.48;;
52210;SDS011;38179;52.756;6.906;2023-05-29T13:03:44;20.25;;;16.92;;
52210;SDS011;38179;52.756;6.906;2023-05-29T13:06:10;19.63;;;15.77;;
52210;SDS011;38179;52.756;6.906;2023-05-29T13:08:37;22.38;;;16.23;;
52210;SDS011;38179;52.756;6.906;2023-05-29T13:11:03;17.80;;;15.70;;
52210;SDS011;38179;52.756;6.906;2023-05-29T13:13:29;20.83;;;17.25;;
52210;SDS011;38179;52.756;6.906;2023-05-29T13:15:54;20.42;;;15.75;;
52210;SDS011;38179;52.756;6.906;2023-05-29T13:18:20;19.58;;;15.52;;
52210;SDS011;38179;52.756;6.906;2023-05-29T13:20:46;18.58;;;16.27;;
52210;SDS011;38179;52.756;6.906;2023-05-29T13:23:12;20.90;;;16.17;;
52210;SDS011;38179;52.756;6.906;2023-05-29T13:25:38;20.70;;;16.42;;
52210;SDS011;38179;52.756;6.906;2023-05-29T13:28:04;19.02;;;16.65;;
52210;SDS011;38179;52.756;6.906;2023-05-29T13:30:30;21.00;;;15.57;;
52210;SDS011;38179;52.756;6.906;2023-05-29T13:32:55;20.02;;;16.27;;
52210;SDS011;38179;52.756;6.906;2023-05-29T13:35:21;17.55;;;15.77;;
52210;SDS011;38179;52.756;6.906;2023-05-29T13:37:47;19.27;;;16.13;;
52210;SDS011;38179;52.756;6.906;2023-05-29T13:40:14;21.25;;;16.17;;
52210;SDS011;38179;52.756;6.906;2023-05-29T13:42:40;19.00;;;16.38;;
52210;SDS011;38179;52.756;6.906;2023-05-29T13:45:06;21.15;;;17.40;;
52210;SDS011;38179;52.756;6.906;2023-05-29T13:47:33;17.65;;;15.85;;
52210;SDS011;38179;52.756;6.906;2023-05-29T13:49:59;17.73;;;15.82;;
52210;SDS011;38179;52.756;6.906;2023-05-29T13:52:26;17.60;;;15.80;;
52210;SDS011;38179;52.756;6.906;2023-05-29T13:54:52;20.38;;;16.42;;
52210;SDS011;38179;52.756;6.906;2023-05-29T13:57:18;20.90;;;16.48;;
52210;SDS011;38179;52.756;6.906;2023-05-29T13:59:44;22.33;;;16.50;;
52210;SDS011;38179;52.756;6.906;2023-05-29T14:02:10;18.50;;;16.45;;
52210;SDS011;38179;52.756;6.906;2023-05-29T14:04:37;17.88;;;16.02;;
52210;SDS011;38179;52.756;6.906;2023-05-29T14:07:03;21.65;;;17.02;;
52210;SDS011;38179;52.756;6.906;2023-05-29T14:09:30;18.25;;;16.35;;
52210;SDS011;38179;52.756;6.906;2023-05-29T14:11:57;18.42;;;16.55;;
52210;SDS011;38179;52.756;6.906;2023-05-29T14:14:24;19.00;;;17.00;;
52210;SDS011;38179;52.756;6.906;2023-05-29T14:16:50;22.63;;;17.25;;
52210;SDS011;38179;52.756;6.906;2023-05-29T14:19:17;20.13;;;16.20;;
52210;SDS011;38179;52.756;6.906;2023-05-29T14:21:43;18.52;;;16.27;;
52210;SDS011;38179;52.756;6.906;2023-05-29T14:24:09;20.42;;;16.85;;
52210;SDS011;38179;52.756;6.906;2023-05-29T14:26:35;18.90;;;16.58;;
52210;SDS011;38179;52.756;6.906;2023-05-29T14:29:02;18.83;;;16.77;;
52210;SDS011;38179;52.756;6.906;2023-05-29T14:31:28;19.13;;;16.85;;
52210;SDS011;38179;52.756;6.906;2023-05-29T14:33:54;18.52;;;16.75;;
52210;SDS011;38179;52.756;6.906;2023-05-29T14:36:20;21.13;;;16.95;;
52210;SDS011;38179;52.756;6.906;2023-05-29T14:38:45;22.33;;;16.92;;
52210;SDS011;38179;52.756;6.906;2023-05-29T14:41:13;22.33;;;16.73;;
52210;SDS011;38179;52.756;6.906;2023-05-29T14:43:41;19.30;;;17.33;;
52210;SDS011;38179;52.756;6.906;2023-05-29T14:46:07;20.73;;;16.77;;